CEH2 weather

Cu Nim Airport
Black Diamond, Alberta, Canada

Public forecast

Using degrees Celsius for public forecast. Weather courtesy of forecast.io.

Closest aviation weather report (METAR) to Cu Nim Airport

Closest report is Calgary / Springbank Airport, 24.0 nm (44.5 km) NNW. Retrieved 2019/12/08 20:00 UTC (49 minutes ago):

CYBW 082000Z AUTO 31002KT 7SM CLR M18/M20 A2986 RMK SLP204

Closest aviation forecast (TAF) to Cu Nim Airport

Closest forecast is Calgary / Springbank Airport, 24.0 nm (44.5 km) NNW. Retrieved 2019/12/08 18:00 UTC (3 hours ago):

TAF CYBW 081738Z 0818/0905 VRB03KT 1/2SM FZFG VV002 TEMPO 0818/0820 2SM BR FEW002 FM082000 22008KT P6SM FEW080 TEMPO 0820/0822 3SM BR BECMG 0822/0824 30010KT RMK FCST BASED ON AUTO OBS NXT FCST BY 090000Z